Language: 


Des rapports , des résumés tant et plus, au choix de chacun....


Données statistiques de la station
Quotidien Rapport Décembre 9, 2017 Unités:  les deux    Anglais   Métrique
« Précédent Jour
Suivant Jour »
Quotidien Hebdomadaire Mensuel Annuel Actuel
  Haut: Bas: Moyen:
Température: 39.6 °F /  4.2 °C 29.5 °F /  -1.4 °C 34 °F /  1.1 °C
Pt de rosée: 35.6 °F /  2.0 °C 26.6 °F /  -3.0 °C 31.5 °F /  -0.3 °C
Humidité: 98 % 79 % 92 %
Vitesse du vent: 10.3 mph /  16.6 km/h - 5.2 mph /  8.3 km/h
Rafales: 14.8 mph /  23.8 km/h - -
Vent:- - WSW
Pression: 30 in /  1016.1 hPa 29.7 in /  1007.0 hPa -
Précipitation: 0 in /  0.0 mm    
Historical Graphs
 
 
Données statistiques pour Décembre 9, 2017
Heure Température Point de rosée Pression Vent Vitesse du vent Refales Humidité Pluie (taux horaire)
00:01 32.4 °F /  0.2 °C 30.2 °F /  -1.0 °C 30 in /  1015.1 hPa WSW 5.4 mph /  8.7 km/h 7.6 mph /  12.2 km/h 87 % 0 in /  0.0 mm
00:06 32.4 °F /  0.2 °C 30.2 °F /  -1.0 °C 30 in /  1015.1 hPa West 5.6 mph /  9.0 km/h 8.7 mph /  14.0 km/h 88 % 0 in /  0.0 mm
00:22 32.4 °F /  0.2 °C 30.2 °F /  -1.0 °C 30 in /  1015.1 hPa WSW 6 mph /  9.7 km/h 9.6 mph /  15.4 km/h 89 % 0 in /  0.0 mm
00:27 32.4 °F /  0.2 °C 30.2 °F /  -1.0 °C 30 in /  1015.1 hPa West 5.6 mph /  9.0 km/h 7.8 mph /  12.6 km/h 89 % 0 in /  0.0 mm
00:32 32.2 °F /  0.1 °C 30.2 °F /  -1.0 °C 30 in /  1015.1 hPa West 6.3 mph /  10.1 km/h 7.8 mph /  12.6 km/h 89 % 0 in /  0.0 mm
00:37 32.2 °F /  0.1 °C 30.2 °F /  -1.0 °C 30 in /  1015.1 hPa West 6 mph /  9.7 km/h 7.4 mph /  11.9 km/h 89 % 0 in /  0.0 mm
00:42 32.4 °F /  0.2 °C 30.2 °F /  -1.0 °C 29.9 in /  1014.1 hPa West 4.7 mph /  7.6 km/h 7.2 mph /  11.6 km/h 90 % 0 in /  0.0 mm
00:47 32.7 °F /  0.4 °C 30.2 °F /  -1.0 °C 29.9 in /  1014.1 hPa West 4.9 mph /  7.9 km/h 7.8 mph /  12.6 km/h 91 % 0 in /  0.0 mm
00:52 32.7 °F /  0.4 °C 30.2 °F /  -1.0 °C 29.9 in /  1014.1 hPa West 4 mph /  6.4 km/h 8.5 mph /  13.7 km/h 91 % 0 in /  0.0 mm
00:57 32.9 °F /  0.5 °C 32 °F /  0.0 °C 29.9 in /  1014.1 hPa West 5.4 mph /  8.7 km/h 8.5 mph /  13.7 km/h 91 % 0 in /  0.0 mm
01:02 32.9 °F /  0.5 °C 32 °F /  0.0 °C 29.9 in /  1014.1 hPa West 1.6 mph /  2.6 km/h 8.7 mph /  14.0 km/h 91 % 0 in /  0.0 mm
01:07 32.7 °F /  0.4 °C 30.2 °F /  -1.0 °C 29.9 in /  1014.1 hPa West 7.2 mph /  11.6 km/h 8.7 mph /  14.0 km/h 91 % 0 in /  0.0 mm
01:17 32.7 °F /  0.4 °C 30.2 °F /  -1.0 °C 30 in /  1015.1 hPa West 8.1 mph /  13.0 km/h 8.1 mph /  13.0 km/h 91 % 0 in /  0.0 mm
01:27 32.7 °F /  0.4 °C 30.2 °F /  -1.0 °C 29.9 in /  1014.1 hPa West 6 mph /  9.7 km/h 8.1 mph /  13.0 km/h 91 % 0 in /  0.0 mm
01:32 32.5 °F /  0.3 °C 30.2 °F /  -1.0 °C 29.9 in /  1014.1 hPa West 7.4 mph /  11.9 km/h 7.4 mph /  11.9 km/h 91 % 0 in /  0.0 mm
01:37 32.5 °F /  0.3 °C 30.2 °F /  -1.0 °C 29.9 in /  1014.1 hPa WSW 6.3 mph /  10.1 km/h 7.4 mph /  11.9 km/h 91 % 0 in /  0.0 mm
01:42 32.4 °F /  0.2 °C 30.2 °F /  -1.0 °C 30 in /  1015.1 hPa West 6.5 mph /  10.5 km/h 7.4 mph /  11.9 km/h 90 % 0 in /  0.0 mm
01:47 32.2 °F /  0.1 °C 30.2 °F /  -1.0 °C 30 in /  1015.1 hPa WSW 0.9 mph /  1.4 km/h 6.5 mph /  10.5 km/h 90 % 0 in /  0.0 mm
01:58 32 °F /  0.0 °C 28.4 °F /  -2.0 °C 29.9 in /  1014.1 hPa WSW 3.6 mph /  5.8 km/h 7.2 mph /  11.6 km/h 91 % 0 in /  0.0 mm
02:03 31.6 °F /  -0.2 °C 28.4 °F /  -2.0 °C 29.9 in /  1014.1 hPa WSW 5.8 mph /  9.3 km/h 7.2 mph /  11.6 km/h 90 % 0 in /  0.0 mm
02:08 31.5 °F /  -0.3 °C 26.6 °F /  -3.0 °C 29.9 in /  1014.1 hPa SW 4.3 mph /  6.9 km/h 6.3 mph /  10.1 km/h 90 % 0 in /  0.0 mm
02:13 31.3 °F /  -0.4 °C 26.6 °F /  -3.0 °C 30 in /  1015.1 hPa Calm   6.3 mph /  10.1 km/h 90 % 0 in /  0.0 mm
02:18 31.1 °F /  -0.5 °C 26.6 °F /  -3.0 °C 30 in /  1015.1 hPa West 5.4 mph /  8.7 km/h 6.3 mph /  10.1 km/h 91 % 0 in /  0.0 mm
02:23 31.1 °F /  -0.5 °C 26.6 °F /  -3.0 °C 30 in /  1015.1 hPa WSW 5.6 mph /  9.0 km/h 6.5 mph /  10.5 km/h 91 % 0 in /  0.0 mm
02:28 31.1 °F /  -0.5 °C 26.6 °F /  -3.0 °C 30 in /  1015.1 hPa Calm   6.5 mph /  10.5 km/h 92 % 0 in /  0.0 mm
02:33 31.1 °F /  -0.5 °C 26.6 °F /  -3.0 °C 30 in /  1015.1 hPa West 6.3 mph /  10.1 km/h 7.4 mph /  11.9 km/h 92 % 0 in /  0.0 mm
02:38 31.1 °F /  -0.5 °C 26.6 °F /  -3.0 °C 30 in /  1015.1 hPa West 3.8 mph /  6.1 km/h 7.4 mph /  11.9 km/h 92 % 0 in /  0.0 mm
02:43 31.1 °F /  -0.5 °C 28.4 °F /  -2.0 °C 30 in /  1015.1 hPa West 2.9 mph /  4.7 km/h 7.2 mph /  11.6 km/h 93 % 0 in /  0.0 mm
02:48 31.1 °F /  -0.5 °C 28.4 °F /  -2.0 °C 30 in /  1015.1 hPa West 5.4 mph /  8.7 km/h 7.2 mph /  11.6 km/h 93 % 0 in /  0.0 mm
02:53 31.1 °F /  -0.5 °C 28.4 °F /  -2.0 °C 30 in /  1015.1 hPa WSW 3.4 mph /  5.5 km/h 7.2 mph /  11.6 km/h 93 % 0 in /  0.0 mm
02:59 30.9 °F /  -0.6 °C 28.4 °F /  -2.0 °C 30 in /  1015.1 hPa West 3.6 mph /  5.8 km/h 7.2 mph /  11.6 km/h 93 % 0 in /  0.0 mm
03:04 30.9 °F /  -0.6 °C 28.4 °F /  -2.0 °C 30 in /  1015.1 hPa SW 3.6 mph /  5.8 km/h 5.3 mph /  8.5 km/h 94 % 0 in /  0.0 mm
03:09 30.7 °F /  -0.7 °C 28.4 °F /  -2.0 °C 30 in /  1015.1 hPa WSW 5.6 mph /  9.0 km/h 6.9 mph /  11.1 km/h 94 % 0 in /  0.0 mm
03:14 30.7 °F /  -0.7 °C 28.4 °F /  -2.0 °C 30 in /  1015.1 hPa WSW 5.4 mph /  8.7 km/h 6.9 mph /  11.1 km/h 94 % 0 in /  0.0 mm
03:19 30.7 °F /  -0.7 °C 28.4 °F /  -2.0 °C 30 in /  1015.1 hPa WSW 4.3 mph /  6.9 km/h 6.3 mph /  10.1 km/h 94 % 0 in /  0.0 mm
03:24 30.7 °F /  -0.7 °C 28.4 °F /  -2.0 °C 30 in /  1015.1 hPa West 4 mph /  6.4 km/h 6.3 mph /  10.1 km/h 94 % 0 in /  0.0 mm
03:34 30.7 °F /  -0.7 °C 28.4 °F /  -2.0 °C 30 in /  1015.1 hPa West 3.8 mph /  6.1 km/h 5.6 mph /  9.0 km/h 95 % 0 in /  0.0 mm
03:44 30.9 °F /  -0.6 °C 28.4 °F /  -2.0 °C 30 in /  1015.1 hPa Calm   6.3 mph /  10.1 km/h 95 % 0 in /  0.0 mm
03:49 30.6 °F /  -0.8 °C 28.4 °F /  -2.0 °C 30 in /  1015.1 hPa Calm   6.3 mph /  10.1 km/h 95 % 0 in /  0.0 mm
03:59 30.4 °F /  -0.9 °C 28.4 °F /  -2.0 °C 30 in /  1015.1 hPa WSW 4 mph /  6.4 km/h 6 mph /  9.7 km/h 95 % 0 in /  0.0 mm
04:02 30.4 °F /  -0.9 °C 28.4 °F /  -2.0 °C 30 in /  1015.1 hPa West 4.9 mph /  7.9 km/h 6 mph /  9.7 km/h 95 % 0 in /  0.0 mm
04:07 30.4 °F /  -0.9 °C 28.4 °F /  -2.0 °C 30 in /  1015.1 hPa West 6.5 mph /  10.5 km/h 6.5 mph /  10.5 km/h 95 % 0 in /  0.0 mm
04:13 30.6 °F /  -0.8 °C 28.4 °F /  -2.0 °C 29.9 in /  1014.1 hPa West 3.4 mph /  5.5 km/h 8.7 mph /  14.0 km/h 95 % 0 in /  0.0 mm
04:18 30.7 °F /  -0.7 °C 28.4 °F /  -2.0 °C 29.9 in /  1014.1 hPa West 5.8 mph /  9.3 km/h 8.7 mph /  14.0 km/h 96 % 0 in /  0.0 mm
04:23 30.9 °F /  -0.6 °C 28.4 °F /  -2.0 °C 29.9 in /  1014.1 hPa WSW 5.4 mph /  8.7 km/h 7.6 mph /  12.2 km/h 96 % 0 in /  0.0 mm
04:24 30.9 °F /  -0.6 °C 28.4 °F /  -2.0 °C 29.9 in /  1014.1 hPa West 7.8 mph /  12.6 km/h 7.8 mph /  12.6 km/h 96 % 0 in /  0.0 mm
04:27 30.9 °F /  -0.6 °C 28.4 °F /  -2.0 °C 30 in /  1015.1 hPa West 5.8 mph /  9.3 km/h 7.8 mph /  12.6 km/h 96 % 0 in /  0.0 mm
04:32 31.1 °F /  -0.5 °C 28.4 °F /  -2.0 °C 30 in /  1015.1 hPa West 6.5 mph /  10.5 km/h 8.1 mph /  13.0 km/h 97 % 0 in /  0.0 mm
04:37 31.1 °F /  -0.5 °C 28.4 °F /  -2.0 °C 30 in /  1015.1 hPa West 7.6 mph /  12.2 km/h 8.1 mph /  13.0 km/h 97 % 0 in /  0.0 mm
04:42 31.1 °F /  -0.5 °C 28.4 °F /  -2.0 °C 30 in /  1015.1 hPa WSW 7.8 mph /  12.6 km/h 7.8 mph /  12.6 km/h 97 % 0 in /  0.0 mm
04:47 31.1 °F /  -0.5 °C 28.4 °F /  -2.0 °C 30 in /  1015.1 hPa West 8.5 mph /  13.7 km/h 8.7 mph /  14.0 km/h 97 % 0 in /  0.0 mm
04:57 31.1 °F /  -0.5 °C 28.4 °F /  -2.0 °C 30 in /  1015.1 hPa WSW 6 mph /  9.7 km/h 8.1 mph /  13.0 km/h 97 % 0 in /  0.0 mm
05:03 30.9 °F /  -0.6 °C 28.4 °F /  -2.0 °C 30 in /  1015.1 hPa West 7.6 mph /  12.2 km/h 8.5 mph /  13.7 km/h 96 % 0 in /  0.0 mm
05:08 30.9 °F /  -0.6 °C 28.4 °F /  -2.0 °C 30 in /  1015.1 hPa WSW 5.6 mph /  9.0 km/h 8.7 mph /  14.0 km/h 96 % 0 in /  0.0 mm
05:13 30.9 °F /  -0.6 °C 28.4 °F /  -2.0 °C 30 in /  1015.1 hPa WSW 5.8 mph /  9.3 km/h 9.4 mph /  15.1 km/h 96 % 0 in /  0.0 mm
05:18 30.9 °F /  -0.6 °C 28.4 °F /  -2.0 °C 30 in /  1015.1 hPa West 5.4 mph /  8.7 km/h 9.4 mph /  15.1 km/h 96 % 0 in /  0.0 mm
05:23 30.9 °F /  -0.6 °C 28.4 °F /  -2.0 °C 30 in /  1015.1 hPa WSW 5.8 mph /  9.3 km/h 7.6 mph /  12.2 km/h 96 % 0 in /  0.0 mm
05:28 30.9 °F /  -0.6 °C 28.4 °F /  -2.0 °C 30 in /  1015.1 hPa West 4.3 mph /  6.9 km/h 8.5 mph /  13.7 km/h 96 % 0 in /  0.0 mm
05:33 30.9 °F /  -0.6 °C 28.4 °F /  -2.0 °C 30 in /  1015.1 hPa WSW 7.2 mph /  11.6 km/h 8.5 mph /  13.7 km/h 96 % 0 in /  0.0 mm
05:38 30.9 °F /  -0.6 °C 28.4 °F /  -2.0 °C 30 in /  1015.1 hPa WSW 2.9 mph /  4.7 km/h 8.1 mph /  13.0 km/h 97 % 0 in /  0.0 mm
05:43 30.9 °F /  -0.6 °C 28.4 °F /  -2.0 °C 30 in /  1015.1 hPa WSW 5.6 mph /  9.0 km/h 8.1 mph /  13.0 km/h 97 % 0 in /  0.0 mm
05:49 30.9 °F /  -0.6 °C 28.4 °F /  -2.0 °C 30 in /  1015.1 hPa West 5.4 mph /  8.7 km/h 8.7 mph /  14.0 km/h 97 % 0 in /  0.0 mm
05:54 30.9 °F /  -0.6 °C 28.4 °F /  -2.0 °C 30 in /  1015.1 hPa West 6.3 mph /  10.1 km/h 8.7 mph /  14.0 km/h 97 % 0 in /  0.0 mm
05:59 30.9 °F /  -0.6 °C 28.4 °F /  -2.0 °C 30 in /  1015.1 hPa West 4 mph /  6.4 km/h 8.1 mph /  13.0 km/h 97 % 0 in /  0.0 mm
06:04 30.9 °F /  -0.6 °C 28.4 °F /  -2.0 °C 30 in /  1015.1 hPa West 5.4 mph /  8.7 km/h 8.1 mph /  13.0 km/h 97 % 0 in /  0.0 mm
06:09 30.9 °F /  -0.6 °C 28.4 °F /  -2.0 °C 30 in /  1015.1 hPa SW 5.8 mph /  9.3 km/h 7.4 mph /  11.9 km/h 97 % 0 in /  0.0 mm
06:14 30.7 °F /  -0.7 °C 28.4 °F /  -2.0 °C 30 in /  1015.1 hPa West 5.4 mph /  8.7 km/h 7.6 mph /  12.2 km/h 96 % 0 in /  0.0 mm
06:19 30.6 °F /  -0.8 °C 28.4 °F /  -2.0 °C 30 in /  1015.1 hPa WNW 5.6 mph /  9.0 km/h 7.8 mph /  12.6 km/h 96 % 0 in /  0.0 mm
06:24 30.6 °F /  -0.8 °C 28.4 °F /  -2.0 °C 30 in /  1015.1 hPa West 6 mph /  9.7 km/h 7.8 mph /  12.6 km/h 96 % 0 in /  0.0 mm
06:29 30.6 °F /  -0.8 °C 28.4 °F /  -2.0 °C 30 in /  1015.1 hPa West 3.1 mph /  5.0 km/h 6.5 mph /  10.5 km/h 96 % 0 in /  0.0 mm
06:34 30.6 °F /  -0.8 °C 28.4 °F /  -2.0 °C 30 in /  1015.1 hPa SW 6 mph /  9.7 km/h 9.6 mph /  15.4 km/h 96 % 0 in /  0.0 mm
06:39 30.6 °F /  -0.8 °C 28.4 °F /  -2.0 °C 30 in /  1015.1 hPa West 6.5 mph /  10.5 km/h 9.6 mph /  15.4 km/h 96 % 0 in /  0.0 mm
06:42 30.6 °F /  -0.8 °C 28.4 °F /  -2.0 °C 29.9 in /  1014.1 hPa West 4.3 mph /  6.9 km/h 9.6 mph /  15.4 km/h 96 % 0 in /  0.0 mm
06:47 30.6 °F /  -0.8 °C 28.4 °F /  -2.0 °C 29.9 in /  1014.1 hPa West 4.9 mph /  7.9 km/h 7.4 mph /  11.9 km/h 97 % 0 in /  0.0 mm
06:57 30.4 °F /  -0.9 °C 28.4 °F /  -2.0 °C 30 in /  1015.1 hPa Calm   5.6 mph /  9.0 km/h 96 % 0 in /  0.0 mm
07:02 30 °F /  -1.1 °C 28.4 °F /  -2.0 °C 30 in /  1015.1 hPa WSW 3.4 mph /  5.5 km/h 4.9 mph /  7.9 km/h 96 % 0 in /  0.0 mm
07:07 29.8 °F /  -1.2 °C 28.4 °F /  -2.0 °C 30 in /  1015.1 hPa WSW 3.1 mph /  5.0 km/h 6.3 mph /  10.1 km/h 96 % 0 in /  0.0 mm
07:12 30 °F /  -1.1 °C 28.4 °F /  -2.0 °C 30 in /  1015.1 hPa West 4.3 mph /  6.9 km/h 7.6 mph /  12.2 km/h 96 % 0 in /  0.0 mm
07:17 30.2 °F /  -1.0 °C 28.4 °F /  -2.0 °C 30 in /  1015.1 hPa West 4.3 mph /  6.9 km/h 7.6 mph /  12.2 km/h 97 % 0 in /  0.0 mm
07:27 30 °F /  -1.1 °C 28.4 °F /  -2.0 °C 30 in /  1015.1 hPa West 4.9 mph /  7.9 km/h 7.4 mph /  11.9 km/h 97 % 0 in /  0.0 mm
07:32 30 °F /  -1.1 °C 28.4 °F /  -2.0 °C 30 in /  1015.1 hPa WSW 5.8 mph /  9.3 km/h 7.4 mph /  11.9 km/h 97 % 0 in /  0.0 mm
07:42 29.7 °F /  -1.3 °C 28.4 °F /  -2.0 °C 30 in /  1015.1 hPa WSW 4.9 mph /  7.9 km/h 6.3 mph /  10.1 km/h 97 % 0 in /  0.0 mm
07:52 29.7 °F /  -1.3 °C 28.4 °F /  -2.0 °C 30 in /  1015.1 hPa West 5.8 mph /  9.3 km/h 6.5 mph /  10.5 km/h 97 % 0 in /  0.0 mm
07:57 29.7 °F /  -1.3 °C 28.4 °F /  -2.0 °C 30 in /  1015.1 hPa WSW 4.3 mph /  6.9 km/h 6.5 mph /  10.5 km/h 97 % 0 in /  0.0 mm
08:02 29.7 °F /  -1.3 °C 28.4 °F /  -2.0 °C 30 in /  1015.1 hPa West 6.3 mph /  10.1 km/h 6.5 mph /  10.5 km/h 97 % 0 in /  0.0 mm
08:07 29.7 °F /  -1.3 °C 28.4 °F /  -2.0 °C 30 in /  1015.1 hPa WSW 5.8 mph /  9.3 km/h 6.5 mph /  10.5 km/h 97 % 0 in /  0.0 mm
08:12 29.7 °F /  -1.3 °C 28.4 °F /  -2.0 °C 29.9 in /  1014.1 hPa WSW 6 mph /  9.7 km/h 7.4 mph /  11.9 km/h 97 % 0 in /  0.0 mm
08:17 29.7 °F /  -1.3 °C 28.4 °F /  -2.0 °C 29.9 in /  1014.1 hPa West 5.8 mph /  9.3 km/h 8.5 mph /  13.7 km/h 97 % 0 in /  0.0 mm
08:22 29.5 °F /  -1.4 °C 28.4 °F /  -2.0 °C 29.9 in /  1014.1 hPa WSW 6 mph /  9.7 km/h 8.5 mph /  13.7 km/h 98 % 0 in /  0.0 mm
08:28 29.7 °F /  -1.3 °C 28.4 °F /  -2.0 °C 30 in /  1015.1 hPa West 4.9 mph /  7.9 km/h 6.9 mph /  11.1 km/h 98 % 0 in /  0.0 mm
08:33 29.7 °F /  -1.3 °C 28.4 °F /  -2.0 °C 30 in /  1015.1 hPa West 2.5 mph /  4.0 km/h 6.9 mph /  11.1 km/h 98 % 0 in /  0.0 mm
08:38 29.7 °F /  -1.3 °C 28.4 °F /  -2.0 °C 30 in /  1015.1 hPa West 3.6 mph /  5.8 km/h 7.6 mph /  12.2 km/h 98 % 0 in /  0.0 mm
08:48 29.8 °F /  -1.2 °C 28.4 °F /  -2.0 °C 30 in /  1015.1 hPa WSW 6.3 mph /  10.1 km/h 8.1 mph /  13.0 km/h 98 % 0 in /  0.0 mm
08:53 29.8 °F /  -1.2 °C 28.4 °F /  -2.0 °C 30 in /  1015.1 hPa West 7.8 mph /  12.6 km/h 9.6 mph /  15.4 km/h 98 % 0 in /  0.0 mm
08:55 29.8 °F /  -1.2 °C 28.4 °F /  -2.0 °C 30 in /  1015.1 hPa WSW 5.4 mph /  8.7 km/h 11 mph /  17.7 km/h 98 % 0 in /  0.0 mm
09:01 29.8 °F /  -1.2 °C 28.4 °F /  -2.0 °C 30 in /  1015.1 hPa West 7.6 mph /  12.2 km/h 11 mph /  17.7 km/h 98 % 0 in /  0.0 mm
09:06 29.8 °F /  -1.2 °C 28.4 °F /  -2.0 °C 30 in /  1015.1 hPa West 6.5 mph /  10.5 km/h 10.5 mph /  16.9 km/h 98 % 0 in /  0.0 mm
09:16 31.3 °F /  -0.4 °C 30.2 °F /  -1.0 °C 30 in /  1015.1 hPa WSW 8.5 mph /  13.7 km/h 8.5 mph /  13.7 km/h 98 % 0 in /  0.0 mm
09:21 31.3 °F /  -0.4 °C 30.2 °F /  -1.0 °C 30 in /  1015.1 hPa West 4 mph /  6.4 km/h 9.8 mph /  15.8 km/h 98 % 0 in /  0.0 mm
09:26 31.3 °F /  -0.4 °C 30.2 °F /  -1.0 °C 30 in /  1015.1 hPa West 6.5 mph /  10.5 km/h 9.8 mph /  15.8 km/h 98 % 0 in /  0.0 mm
09:31 31.3 °F /  -0.4 °C 30.2 °F /  -1.0 °C 30 in /  1015.1 hPa West 9.2 mph /  14.8 km/h 9.2 mph /  14.8 km/h 98 % 0 in /  0.0 mm
09:32 31.3 °F /  -0.4 °C 30.2 °F /  -1.0 °C 30 in /  1015.1 hPa West 6.7 mph /  10.8 km/h 9.2 mph /  14.8 km/h 98 % 0 in /  0.0 mm
09:38 31.3 °F /  -0.4 °C 30.2 °F /  -1.0 °C 30 in /  1015.1 hPa West 4.9 mph /  7.9 km/h 9.2 mph /  14.8 km/h 98 % 0 in /  0.0 mm
09:48 31.3 °F /  -0.4 °C 30.2 °F /  -1.0 °C 30 in /  1016.1 hPa WSW 6.7 mph /  10.8 km/h 10.3 mph /  16.6 km/h 98 % 0 in /  0.0 mm
09:58 31.3 °F /  -0.4 °C 30.2 °F /  -1.0 °C 30 in /  1016.1 hPa West 7.8 mph /  12.6 km/h 8.7 mph /  14.0 km/h 98 % 0 in /  0.0 mm
10:03 31.3 °F /  -0.4 °C 30.2 °F /  -1.0 °C 30 in /  1016.1 hPa WSW 6.3 mph /  10.1 km/h 9.8 mph /  15.8 km/h 98 % 0 in /  0.0 mm
10:08 31.3 °F /  -0.4 °C 30.2 °F /  -1.0 °C 30 in /  1016.1 hPa WSW 7.6 mph /  12.2 km/h 9.8 mph /  15.8 km/h 98 % 0 in /  0.0 mm
10:13 31.3 °F /  -0.4 °C 30.2 °F /  -1.0 °C 30 in /  1016.1 hPa West 6.5 mph /  10.5 km/h 7.8 mph /  12.6 km/h 98 % 0 in /  0.0 mm
10:18 31.3 °F /  -0.4 °C 30.2 °F /  -1.0 °C 30 in /  1016.1 hPa WSW 5.6 mph /  9.0 km/h 8.5 mph /  13.7 km/h 98 % 0 in /  0.0 mm
10:23 31.3 °F /  -0.4 °C 30.2 °F /  -1.0 °C 30 in /  1016.1 hPa WSW 4.3 mph /  6.9 km/h 8.5 mph /  13.7 km/h 98 % 0 in /  0.0 mm
10:28 31.3 °F /  -0.4 °C 30.2 °F /  -1.0 °C 30 in /  1016.1 hPa WSW 4 mph /  6.4 km/h 7.6 mph /  12.2 km/h 98 % 0 in /  0.0 mm
10:33 31.3 °F /  -0.4 °C 30.2 °F /  -1.0 °C 30 in /  1016.1 hPa WSW 6.9 mph /  11.1 km/h 7.6 mph /  12.2 km/h 98 % 0 in /  0.0 mm
10:38 34.7 °F /  1.5 °C 33.8 °F /  1.0 °C 30 in /  1016.1 hPa WSW 5.4 mph /  8.7 km/h 6.9 mph /  11.1 km/h 97 % 0 in /  0.0 mm
10:43 34.9 °F /  1.6 °C 33.8 °F /  1.0 °C 30 in /  1015.1 hPa West 5.6 mph /  9.0 km/h 7.6 mph /  12.2 km/h 97 % 0 in /  0.0 mm
10:48 35.1 °F /  1.7 °C 33.8 °F /  1.0 °C 30 in /  1015.1 hPa WSW 9.2 mph /  14.8 km/h 10.3 mph /  16.6 km/h 96 % 0 in /  0.0 mm
10:53 35.2 °F /  1.8 °C 33.8 °F /  1.0 °C 30 in /  1015.1 hPa WSW 5.8 mph /  9.3 km/h 10.3 mph /  16.6 km/h 95 % 0 in /  0.0 mm
10:58 35.4 °F /  1.9 °C 33.8 °F /  1.0 °C 30 in /  1016.1 hPa West 8.7 mph /  14.0 km/h 9.8 mph /  15.8 km/h 94 % 0 in /  0.0 mm
11:03 35.6 °F /  2.0 °C 33.8 °F /  1.0 °C 30 in /  1016.1 hPa WSW 7.4 mph /  11.9 km/h 10.3 mph /  16.6 km/h 93 % 0 in /  0.0 mm
11:08 36 °F /  2.2 °C 33.8 °F /  1.0 °C 30 in /  1016.1 hPa WSW 8.5 mph /  13.7 km/h 10.3 mph /  16.6 km/h 93 % 0 in /  0.0 mm
11:13 36.1 °F /  2.3 °C 33.8 °F /  1.0 °C 30 in /  1016.1 hPa WSW 7.8 mph /  12.6 km/h 8.7 mph /  14.0 km/h 92 % 0 in /  0.0 mm
11:19 36.3 °F /  2.4 °C 33.8 °F /  1.0 °C 30 in /  1016.1 hPa SSW 6.3 mph /  10.1 km/h 8.7 mph /  14.0 km/h 92 % 0 in /  0.0 mm
11:24 36.7 °F /  2.6 °C 35.6 °F /  2.0 °C 30 in /  1016.1 hPa WSW 10.3 mph /  16.6 km/h 10.5 mph /  16.9 km/h 91 % 0 in /  0.0 mm
11:29 36.9 °F /  2.7 °C 33.8 °F /  1.0 °C 30 in /  1016.1 hPa WSW 8.1 mph /  13.0 km/h 10.5 mph /  16.9 km/h 90 % 0 in /  0.0 mm
11:34 37 °F /  2.8 °C 35.6 °F /  2.0 °C 30 in /  1016.1 hPa WSW 7.2 mph /  11.6 km/h 10.5 mph /  16.9 km/h 90 % 0 in /  0.0 mm
11:39 37.2 °F /  2.9 °C 35.6 °F /  2.0 °C 30 in /  1016.1 hPa WSW 8.7 mph /  14.0 km/h 9.8 mph /  15.8 km/h 90 % 0 in /  0.0 mm
11:44 37.4 °F /  3.0 °C 35.6 °F /  2.0 °C 30 in /  1016.1 hPa West 8.7 mph /  14.0 km/h 11.2 mph /  18.0 km/h 89 % 0 in /  0.0 mm
11:49 37.6 °F /  3.1 °C 33.8 °F /  1.0 °C 30 in /  1016.1 hPa West 7.8 mph /  12.6 km/h 11.9 mph /  19.1 km/h 88 % 0 in /  0.0 mm
11:54 37.6 °F /  3.1 °C 33.8 °F /  1.0 °C 30 in /  1016.1 hPa WSW 7.4 mph /  11.9 km/h 13 mph /  20.9 km/h 87 % 0 in /  0.0 mm
12:04 37.9 °F /  3.3 °C 35.6 °F /  2.0 °C 30 in /  1015.1 hPa WSW 6.5 mph /  10.5 km/h 10.5 mph /  16.9 km/h 87 % 0 in /  0.0 mm
12:09 38.3 °F /  3.5 °C 35.6 °F /  2.0 °C 30 in /  1015.1 hPa WSW 8.1 mph /  13.0 km/h 10.5 mph /  16.9 km/h 87 % 0 in /  0.0 mm
12:14 38.5 °F /  3.6 °C 35.6 °F /  2.0 °C 30 in /  1015.1 hPa WSW 8.7 mph /  14.0 km/h 11 mph /  17.7 km/h 86 % 0 in /  0.0 mm
12:19 38.7 °F /  3.7 °C 35.6 °F /  2.0 °C 30 in /  1015.1 hPa WSW 6 mph /  9.7 km/h 11 mph /  17.7 km/h 86 % 0 in /  0.0 mm
12:24 38.8 °F /  3.8 °C 35.6 °F /  2.0 °C 30 in /  1015.1 hPa WSW 10.3 mph /  16.6 km/h 12.3 mph /  19.8 km/h 86 % 0 in /  0.0 mm
12:29 39 °F /  3.9 °C 35.6 °F /  2.0 °C 30 in /  1015.1 hPa WSW 8.7 mph /  14.0 km/h 12.3 mph /  19.8 km/h 85 % 0 in /  0.0 mm
12:34 39 °F /  3.9 °C 33.8 °F /  1.0 °C 30 in /  1015.1 hPa West 7.8 mph /  12.6 km/h 12.5 mph /  20.1 km/h 83 % 0 in /  0.0 mm
12:39 39.2 °F /  4.0 °C 33.8 °F /  1.0 °C 30 in /  1015.1 hPa West 6.5 mph /  10.5 km/h 12.5 mph /  20.1 km/h 82 % 0 in /  0.0 mm
12:44 39.4 °F /  4.1 °C 33.8 °F /  1.0 °C 30 in /  1015.1 hPa WSW 6.5 mph /  10.5 km/h 12.1 mph /  19.5 km/h 83 % 0 in /  0.0 mm
12:49 39.6 °F /  4.2 °C 35.6 °F /  2.0 °C 30 in /  1015.1 hPa WNW 6.5 mph /  10.5 km/h 10.5 mph /  16.9 km/h 82 % 0 in /  0.0 mm
12:54 39.6 °F /  4.2 °C 33.8 °F /  1.0 °C 30 in /  1015.1 hPa West 8.1 mph /  13.0 km/h 12.5 mph /  20.1 km/h 81 % 0 in /  0.0 mm
13:00 39.2 °F /  4.0 °C 33.8 °F /  1.0 °C 30 in /  1015.1 hPa West 7.8 mph /  12.6 km/h 13 mph /  20.9 km/h 79 % 0 in /  0.0 mm
13:05 38.8 °F /  3.8 °C 33.8 °F /  1.0 °C 30 in /  1015.1 hPa SSW 5.4 mph /  8.7 km/h 13 mph /  20.9 km/h 79 % 0 in /  0.0 mm
13:10 38.7 °F /  3.7 °C 33.8 °F /  1.0 °C 30 in /  1015.1 hPa WSW 8.1 mph /  13.0 km/h 12.1 mph /  19.5 km/h 80 % 0 in /  0.0 mm
13:15 38.5 °F /  3.6 °C 33.8 °F /  1.0 °C 30 in /  1015.1 hPa West 6 mph /  9.7 km/h 12.5 mph /  20.1 km/h 80 % 0 in /  0.0 mm
13:20 38.5 °F /  3.6 °C 33.8 °F /  1.0 °C 30 in /  1015.1 hPa WSW 8.5 mph /  13.7 km/h 13 mph /  20.9 km/h 80 % 0 in /  0.0 mm
13:25 38.5 °F /  3.6 °C 33.8 °F /  1.0 °C 30 in /  1015.1 hPa West 6 mph /  9.7 km/h 13 mph /  20.9 km/h 80 % 0 in /  0.0 mm
13:30 38.5 °F /  3.6 °C 33.8 °F /  1.0 °C 30 in /  1016.1 hPa West 6.3 mph /  10.1 km/h 11.9 mph /  19.1 km/h 81 % 0 in /  0.0 mm
13:35 38.5 °F /  3.6 °C 33.8 °F /  1.0 °C 30 in /  1016.1 hPa West 8.5 mph /  13.7 km/h 12.5 mph /  20.1 km/h 80 % 0 in /  0.0 mm
13:40 38.3 °F /  3.5 °C 33.8 °F /  1.0 °C 30 in /  1016.1 hPa SW 10.1 mph /  16.3 km/h 14.8 mph /  23.8 km/h 79 % 0 in /  0.0 mm
13:45 38.3 °F /  3.5 °C 33.8 °F /  1.0 °C 30 in /  1015.1 hPa West 6 mph /  9.7 km/h 14.8 mph /  23.8 km/h 79 % 0 in /  0.0 mm
13:50 38.3 °F /  3.5 °C 33.8 °F /  1.0 °C 30 in /  1015.1 hPa West 8.5 mph /  13.7 km/h 12.8 mph /  20.6 km/h 80 % 0 in /  0.0 mm
13:51 38.3 °F /  3.5 °C 33.8 °F /  1.0 °C 30 in /  1015.1 hPa West 7.8 mph /  12.6 km/h 12.8 mph /  20.6 km/h 80 % 0 in /  0.0 mm
13:56 38.1 °F /  3.4 °C 32 °F /  0.0 °C 30 in /  1015.1 hPa West 5.6 mph /  9.0 km/h 11 mph /  17.7 km/h 79 % 0 in /  0.0 mm
14:01 38.1 °F /  3.4 °C 33.8 °F /  1.0 °C 30 in /  1015.1 hPa WSW 7.8 mph /  12.6 km/h 11 mph /  17.7 km/h 80 % 0 in /  0.0 mm
14:06 38.3 °F /  3.5 °C 33.8 °F /  1.0 °C 30 in /  1015.1 hPa West 6 mph /  9.7 km/h 9.8 mph /  15.8 km/h 80 % 0 in /  0.0 mm
14:11 38.3 °F /  3.5 °C 33.8 °F /  1.0 °C 30 in /  1015.1 hPa West 8.7 mph /  14.0 km/h 9.6 mph /  15.4 km/h 81 % 0 in /  0.0 mm
14:16 38.3 °F /  3.5 °C 33.8 °F /  1.0 °C 30 in /  1015.1 hPa WSW 5.8 mph /  9.3 km/h 10.1 mph /  16.3 km/h 80 % 0 in /  0.0 mm
14:21 38.5 °F /  3.6 °C 33.8 °F /  1.0 °C 30 in /  1015.1 hPa West 6.5 mph /  10.5 km/h 10.1 mph /  16.3 km/h 79 % 0 in /  0.0 mm
14:31 38.5 °F /  3.6 °C 33.8 °F /  1.0 °C 29.9 in /  1014.1 hPa WSW 5.8 mph /  9.3 km/h 9.2 mph /  14.8 km/h 79 % 0 in /  0.0 mm
14:36 38.5 °F /  3.6 °C 33.8 °F /  1.0 °C 29.9 in /  1014.1 hPa WSW 7.4 mph /  11.9 km/h 8.7 mph /  14.0 km/h 79 % 0 in /  0.0 mm
14:51 38.5 °F /  3.6 °C 33.8 °F /  1.0 °C 29.9 in /  1014.1 hPa West 4 mph /  6.4 km/h 8.1 mph /  13.0 km/h 81 % 0 in /  0.0 mm
15:01 38.3 °F /  3.5 °C 33.8 °F /  1.0 °C 29.9 in /  1014.1 hPa WSW 4.3 mph /  6.9 km/h 6.3 mph /  10.1 km/h 82 % 0 in /  0.0 mm
15:06 38.1 °F /  3.4 °C 33.8 °F /  1.0 °C 29.9 in /  1014.1 hPa WSW 4 mph /  6.4 km/h 6.3 mph /  10.1 km/h 82 % 0 in /  0.0 mm
15:11 37.9 °F /  3.3 °C 33.8 °F /  1.0 °C 29.9 in /  1014.1 hPa SW 4.7 mph /  7.6 km/h 6.3 mph /  10.1 km/h 82 % 0 in /  0.0 mm
15:16 37.9 °F /  3.3 °C 33.8 °F /  1.0 °C 29.9 in /  1014.1 hPa WSW 4.9 mph /  7.9 km/h 6.3 mph /  10.1 km/h 82 % 0 in /  0.0 mm
15:21 37.9 °F /  3.3 °C 33.8 °F /  1.0 °C 29.9 in /  1014.1 hPa West 5.8 mph /  9.3 km/h 6.5 mph /  10.5 km/h 82 % 0 in /  0.0 mm
15:26 37.9 °F /  3.3 °C 33.8 °F /  1.0 °C 29.9 in /  1013.1 hPa WSW 4.7 mph /  7.6 km/h 8.1 mph /  13.0 km/h 82 % 0 in /  0.0 mm
15:31 38.3 °F /  3.5 °C 33.8 °F /  1.0 °C 29.9 in /  1013.1 hPa WSW 4 mph /  6.4 km/h 8.1 mph /  13.0 km/h 82 % 0 in /  0.0 mm
15:41 38.7 °F /  3.7 °C 33.8 °F /  1.0 °C 29.9 in /  1013.1 hPa Calm   7.2 mph /  11.6 km/h 82 % 0 in /  0.0 mm
15:46 38.5 °F /  3.6 °C 33.8 °F /  1.0 °C 29.9 in /  1013.1 hPa WSW 4.5 mph /  7.2 km/h 7.6 mph /  12.2 km/h 82 % 0 in /  0.0 mm
15:51 38.5 °F /  3.6 °C 33.8 °F /  1.0 °C 29.9 in /  1013.1 hPa SW 3.8 mph /  6.1 km/h 7.6 mph /  12.2 km/h 81 % 0 in /  0.0 mm
16:02 38.1 °F /  3.4 °C 33.8 °F /  1.0 °C 29.9 in /  1013.1 hPa SSW 3.8 mph /  6.1 km/h 5.8 mph /  9.3 km/h 81 % 0 in /  0.0 mm
16:07 38.1 °F /  3.4 °C 33.8 °F /  1.0 °C 29.9 in /  1013.1 hPa SW 4.9 mph /  7.9 km/h 5.6 mph /  9.0 km/h 81 % 0 in /  0.0 mm
16:12 37.9 °F /  3.3 °C 33.8 °F /  1.0 °C 29.9 in /  1013.1 hPa SSW 2.9 mph /  4.7 km/h 5.6 mph /  9.0 km/h 80 % 0 in /  0.0 mm
16:17 37.9 °F /  3.3 °C 33.8 °F /  1.0 °C 29.9 in /  1013.1 hPa Calm   5.8 mph /  9.3 km/h 80 % 0 in /  0.0 mm
16:22 37.6 °F /  3.1 °C 32 °F /  0.0 °C 29.9 in /  1013.1 hPa Calm   5.8 mph /  9.3 km/h 80 % 0 in /  0.0 mm
16:27 37.4 °F /  3.0 °C 32 °F /  0.0 °C 29.9 in /  1013.1 hPa SSW 4.3 mph /  6.9 km/h 5.8 mph /  9.3 km/h 80 % 0 in /  0.0 mm
16:32 37.2 °F /  2.9 °C 32 °F /  0.0 °C 29.9 in /  1013.1 hPa SW 3.8 mph /  6.1 km/h 5.6 mph /  9.0 km/h 81 % 0 in /  0.0 mm
16:37 37 °F /  2.8 °C 32 °F /  0.0 °C 29.9 in /  1013.1 hPa Calm   4.7 mph /  7.6 km/h 81 % 0 in /  0.0 mm
16:42 36.9 °F /  2.7 °C 32 °F /  0.0 °C 29.9 in /  1013.1 hPa SW 3.1 mph /  5.0 km/h 4.9 mph /  7.9 km/h 81 % 0 in /  0.0 mm
16:47 36.7 °F /  2.6 °C 32 °F /  0.0 °C 29.9 in /  1013.1 hPa SSW 3.1 mph /  5.0 km/h 4.9 mph /  7.9 km/h 81 % 0 in /  0.0 mm
16:52 36.5 °F /  2.5 °C 32 °F /  0.0 °C 29.9 in /  1013.1 hPa Calm   5.4 mph /  8.7 km/h 82 % 0 in /  0.0 mm
16:57 36.5 °F /  2.5 °C 32 °F /  0.0 °C 29.9 in /  1013.1 hPa SW 4.9 mph /  7.9 km/h 6 mph /  9.7 km/h 82 % 0 in /  0.0 mm
17:02 36.5 °F /  2.5 °C 32 °F /  0.0 °C 29.9 in /  1013.1 hPa SW 5.4 mph /  8.7 km/h 6 mph /  9.7 km/h 82 % 0 in /  0.0 mm
17:17 35.6 °F /  2.0 °C 30.2 °F /  -1.0 °C 29.9 in /  1013.1 hPa WSW 5.4 mph /  8.7 km/h 6.3 mph /  10.1 km/h 81 % 0 in /  0.0 mm
17:22 35.2 °F /  1.8 °C 30.2 °F /  -1.0 °C 29.9 in /  1013.1 hPa WSW 5.6 mph /  9.0 km/h 6.3 mph /  10.1 km/h 82 % 0 in /  0.0 mm
17:27 34.9 °F /  1.6 °C 30.2 °F /  -1.0 °C 29.9 in /  1012.1 hPa WSW 4.9 mph /  7.9 km/h 6 mph /  9.7 km/h 82 % 0 in /  0.0 mm
17:38 34.5 °F /  1.4 °C 30.2 °F /  -1.0 °C 29.9 in /  1012.1 hPa WSW 4.9 mph /  7.9 km/h 5.8 mph /  9.3 km/h 83 % 0 in /  0.0 mm
17:39 34.5 °F /  1.4 °C 30.2 °F /  -1.0 °C 29.9 in /  1012.1 hPa WSW 3.1 mph /  5.0 km/h 5.8 mph /  9.3 km/h 83 % 0 in /  0.0 mm
17:44 34.3 °F /  1.3 °C 30.2 °F /  -1.0 °C 29.9 in /  1012.1 hPa WSW 5.4 mph /  8.7 km/h 5.6 mph /  9.0 km/h 84 % 0 in /  0.0 mm
17:49 34.7 °F /  1.5 °C 32 °F /  0.0 °C 29.9 in /  1012.1 hPa SW 4.9 mph /  7.9 km/h 6.3 mph /  10.1 km/h 85 % 0 in /  0.0 mm
17:54 34.9 °F /  1.6 °C 32 °F /  0.0 °C 29.9 in /  1012.1 hPa SSW 3.8 mph /  6.1 km/h 6.3 mph /  10.1 km/h 85 % 0 in /  0.0 mm
17:59 35.1 °F /  1.7 °C 32 °F /  0.0 °C 29.9 in /  1012.1 hPa SSW 6.3 mph /  10.1 km/h 6.3 mph /  10.1 km/h 85 % 0 in /  0.0 mm
18:04 35.2 °F /  1.8 °C 32 °F /  0.0 °C 29.9 in /  1012.1 hPa SW 5.4 mph /  8.7 km/h 8.7 mph /  14.0 km/h 85 % 0 in /  0.0 mm
18:09 35.4 °F /  1.9 °C 32 °F /  0.0 °C 29.9 in /  1012.1 hPa SSW 6.5 mph /  10.5 km/h 8.7 mph /  14.0 km/h 85 % 0 in /  0.0 mm
18:14 35.4 °F /  1.9 °C 32 °F /  0.0 °C 29.9 in /  1012.1 hPa SSW 4 mph /  6.4 km/h 8.1 mph /  13.0 km/h 86 % 0 in /  0.0 mm
18:20 35.2 °F /  1.8 °C 32 °F /  0.0 °C 29.9 in /  1012.1 hPa WSW 4.9 mph /  7.9 km/h 7.6 mph /  12.2 km/h 86 % 0 in /  0.0 mm
18:25 35.2 °F /  1.8 °C 32 °F /  0.0 °C 29.9 in /  1012.1 hPa SW 4.9 mph /  7.9 km/h 7.4 mph /  11.9 km/h 86 % 0 in /  0.0 mm
18:30 35.2 °F /  1.8 °C 32 °F /  0.0 °C 29.9 in /  1012.1 hPa WSW 7.4 mph /  11.9 km/h 8.7 mph /  14.0 km/h 87 % 0 in /  0.0 mm
18:35 35.1 °F /  1.7 °C 32 °F /  0.0 °C 29.9 in /  1012.1 hPa WSW 5.8 mph /  9.3 km/h 8.7 mph /  14.0 km/h 88 % 0 in /  0.0 mm
18:45 35.1 °F /  1.7 °C 32 °F /  0.0 °C 29.9 in /  1011.1 hPa SSW 6 mph /  9.7 km/h 8.9 mph /  14.3 km/h 89 % 0 in /  0.0 mm
18:50 35.1 °F /  1.7 °C 32 °F /  0.0 °C 29.9 in /  1011.1 hPa SW 6.3 mph /  10.1 km/h 9.8 mph /  15.8 km/h 89 % 0 in /  0.0 mm
18:55 34.9 °F /  1.6 °C 32 °F /  0.0 °C 29.9 in /  1011.1 hPa SSW 8.5 mph /  13.7 km/h 10.3 mph /  16.6 km/h 90 % 0 in /  0.0 mm
19:00 34.9 °F /  1.6 °C 33.8 °F /  1.0 °C 29.9 in /  1011.1 hPa SSW 5.8 mph /  9.3 km/h 10.3 mph /  16.6 km/h 91 % 0 in /  0.0 mm
19:05 34.9 °F /  1.6 °C 33.8 °F /  1.0 °C 29.9 in /  1011.1 hPa SSW 5.8 mph /  9.3 km/h 8.7 mph /  14.0 km/h 91 % 0 in /  0.0 mm
19:10 34.7 °F /  1.5 °C 33.8 °F /  1.0 °C 29.9 in /  1011.1 hPa WSW 4 mph /  6.4 km/h 8.7 mph /  14.0 km/h 91 % 0 in /  0.0 mm
19:15 34.5 °F /  1.4 °C 32 °F /  0.0 °C 29.9 in /  1011.1 hPa SW 4 mph /  6.4 km/h 6.5 mph /  10.5 km/h 92 % 0 in /  0.0 mm
19:20 34.5 °F /  1.4 °C 32 °F /  0.0 °C 29.9 in /  1011.1 hPa SSW 4 mph /  6.4 km/h 6.5 mph /  10.5 km/h 92 % 0 in /  0.0 mm
19:25 34.3 °F /  1.3 °C 32 °F /  0.0 °C 29.9 in /  1011.1 hPa South 6.5 mph /  10.5 km/h 6.7 mph /  10.8 km/h 92 % 0 in /  0.0 mm
19:30 34.3 °F /  1.3 °C 32 °F /  0.0 °C 29.9 in /  1011.1 hPa WSW 3.8 mph /  6.1 km/h 6.7 mph /  10.8 km/h 92 % 0 in /  0.0 mm
19:35 34.3 °F /  1.3 °C 33.8 °F /  1.0 °C 29.9 in /  1011.1 hPa SW 5.6 mph /  9.0 km/h 7.8 mph /  12.6 km/h 93 % 0 in /  0.0 mm
19:40 34.3 °F /  1.3 °C 33.8 °F /  1.0 °C 29.9 in /  1011.1 hPa SW 4.3 mph /  6.9 km/h 7.8 mph /  12.6 km/h 94 % 0 in /  0.0 mm
19:45 34.2 °F /  1.2 °C 33.8 °F /  1.0 °C 29.9 in /  1011.1 hPa WSW 7.4 mph /  11.9 km/h 7.4 mph /  11.9 km/h 94 % 0 in /  0.0 mm
19:50 34.2 °F /  1.2 °C 33.8 °F /  1.0 °C 29.9 in /  1011.1 hPa SSW 5.8 mph /  9.3 km/h 7.4 mph /  11.9 km/h 94 % 0 in /  0.0 mm
19:55 34.2 °F /  1.2 °C 33.8 °F /  1.0 °C 29.9 in /  1011.1 hPa Calm   7.4 mph /  11.9 km/h 94 % 0 in /  0.0 mm
20:00 34.2 °F /  1.2 °C 33.8 °F /  1.0 °C 29.9 in /  1011.1 hPa SW 5.4 mph /  8.7 km/h 6.5 mph /  10.5 km/h 95 % 0 in /  0.0 mm
20:06 34.2 °F /  1.2 °C 33.8 °F /  1.0 °C 29.9 in /  1011.1 hPa SSW 4.9 mph /  7.9 km/h 8.7 mph /  14.0 km/h 95 % 0 in /  0.0 mm
20:16 34.3 °F /  1.3 °C 33.8 °F /  1.0 °C 29.9 in /  1011.1 hPa WSW 4.3 mph /  6.9 km/h 7.2 mph /  11.6 km/h 96 % 0 in /  0.0 mm
20:21 34.3 °F /  1.3 °C 33.8 °F /  1.0 °C 29.9 in /  1011.1 hPa South 6.5 mph /  10.5 km/h 7.8 mph /  12.6 km/h 96 % 0 in /  0.0 mm
20:31 34.5 °F /  1.4 °C 33.8 °F /  1.0 °C 29.9 in /  1011.1 hPa South 5.4 mph /  8.7 km/h 6.5 mph /  10.5 km/h 97 % 0 in /  0.0 mm
20:36 34.5 °F /  1.4 °C 33.8 °F /  1.0 °C 29.9 in /  1011.1 hPa SW 4.3 mph /  6.9 km/h 6.7 mph /  10.8 km/h 97 % 0 in /  0.0 mm
20:41 34.7 °F /  1.5 °C 33.8 °F /  1.0 °C 29.9 in /  1011.1 hPa SW 6 mph /  9.7 km/h 6.7 mph /  10.8 km/h 97 % 0 in /  0.0 mm
20:46 34.9 °F /  1.6 °C 33.8 °F /  1.0 °C 29.9 in /  1011.1 hPa SW 8.5 mph /  13.7 km/h 8.5 mph /  13.7 km/h 97 % 0 in /  0.0 mm
20:51 34.9 °F /  1.6 °C 33.8 °F /  1.0 °C 29.9 in /  1011.1 hPa SW 4 mph /  6.4 km/h 8.5 mph /  13.7 km/h 97 % 0 in /  0.0 mm
20:56 34.9 °F /  1.6 °C 35.6 °F /  2.0 °C 29.8 in /  1010.0 hPa WSW 8.1 mph /  13.0 km/h 8.7 mph /  14.0 km/h 98 % 0 in /  0.0 mm
21:01 34.9 °F /  1.6 °C 35.6 °F /  2.0 °C 29.8 in /  1010.0 hPa WSW 4.9 mph /  7.9 km/h 8.7 mph /  14.0 km/h 98 % 0 in /  0.0 mm
21:06 35.1 °F /  1.7 °C 35.6 °F /  2.0 °C 29.8 in /  1010.0 hPa SW 5.8 mph /  9.3 km/h 8.7 mph /  14.0 km/h 98 % 0 in /  0.0 mm
21:11 34.9 °F /  1.6 °C 35.6 °F /  2.0 °C 29.8 in /  1010.0 hPa Calm   7.8 mph /  12.6 km/h 98 % 0 in /  0.0 mm
21:16 34.9 °F /  1.6 °C 35.6 °F /  2.0 °C 29.8 in /  1010.0 hPa SW 4.9 mph /  7.9 km/h 7.8 mph /  12.6 km/h 98 % 0 in /  0.0 mm
21:21 35.1 °F /  1.7 °C 35.6 °F /  2.0 °C 29.8 in /  1010.0 hPa WSW 6.5 mph /  10.5 km/h 8.1 mph /  13.0 km/h 98 % 0 in /  0.0 mm
21:26 35.1 °F /  1.7 °C 35.6 °F /  2.0 °C 29.8 in /  1009.0 hPa SW 6.7 mph /  10.8 km/h 8.1 mph /  13.0 km/h 98 % 0 in /  0.0 mm
21:37 34.9 °F /  1.6 °C 35.6 °F /  2.0 °C 29.8 in /  1009.0 hPa SSW 4.9 mph /  7.9 km/h 7.2 mph /  11.6 km/h 98 % 0 in /  0.0 mm
21:42 34.9 °F /  1.6 °C 35.6 °F /  2.0 °C 29.8 in /  1009.0 hPa SSW 7.2 mph /  11.6 km/h 7.2 mph /  11.6 km/h 98 % 0 in /  0.0 mm
21:57 34.9 °F /  1.6 °C 35.6 °F /  2.0 °C 29.8 in /  1009.0 hPa SW 3.6 mph /  5.8 km/h 6 mph /  9.7 km/h 98 % 0 in /  0.0 mm
22:02 34.9 °F /  1.6 °C 35.6 °F /  2.0 °C 29.8 in /  1009.0 hPa SW 6.7 mph /  10.8 km/h 6.7 mph /  10.8 km/h 98 % 0 in /  0.0 mm
22:07 34.9 °F /  1.6 °C 35.6 °F /  2.0 °C 29.8 in /  1009.0 hPa SSW 3.6 mph /  5.8 km/h 7.4 mph /  11.9 km/h 98 % 0 in /  0.0 mm
22:12 34.9 °F /  1.6 °C 35.6 °F /  2.0 °C 29.8 in /  1009.0 hPa SW 5.4 mph /  8.7 km/h 7.4 mph /  11.9 km/h 98 % 0 in /  0.0 mm
22:17 34.9 °F /  1.6 °C 35.6 °F /  2.0 °C 29.8 in /  1009.0 hPa SW 3.1 mph /  5.0 km/h 6.3 mph /  10.1 km/h 98 % 0 in /  0.0 mm
22:22 34.7 °F /  1.5 °C 35.6 °F /  2.0 °C 29.8 in /  1009.0 hPa SSW 4.3 mph /  6.9 km/h 5.8 mph /  9.3 km/h 98 % 0 in /  0.0 mm
22:27 34.7 °F /  1.5 °C 35.6 °F /  2.0 °C 29.8 in /  1009.0 hPa Calm   5.8 mph /  9.3 km/h 98 % 0 in /  0.0 mm
22:32 34.5 °F /  1.4 °C 33.8 °F /  1.0 °C 29.8 in /  1009.0 hPa Calm   4.9 mph /  7.9 km/h 98 % 0 in /  0.0 mm
22:37 34.5 °F /  1.4 °C 33.8 °F /  1.0 °C 29.8 in /  1009.0 hPa West 3.6 mph /  5.8 km/h 3.6 mph /  5.8 km/h 98 % 0 in /  0.0 mm
22:42 34.5 °F /  1.4 °C 33.8 °F /  1.0 °C 29.8 in /  1009.0 hPa Calm   3.6 mph /  5.8 km/h 98 % 0 in /  0.0 mm
22:47 34.5 °F /  1.4 °C 33.8 °F /  1.0 °C 29.8 in /  1009.0 hPa SSW 2.9 mph /  4.7 km/h 4.3 mph /  6.9 km/h 98 % 0 in /  0.0 mm
22:52 34.5 °F /  1.4 °C 33.8 °F /  1.0 °C 29.8 in /  1009.0 hPa Calm   4.3 mph /  6.9 km/h 98 % 0 in /  0.0 mm
22:57 34.5 °F /  1.4 °C 33.8 °F /  1.0 °C 29.8 in /  1008.0 hPa South 1.6 mph /  2.6 km/h 4.3 mph /  6.9 km/h 98 % 0 in /  0.0 mm
23:02 34.5 °F /  1.4 °C 33.8 °F /  1.0 °C 29.8 in /  1008.0 hPa Calm   3.1 mph /  5.0 km/h 98 % 0 in /  0.0 mm
23:08 34.5 °F /  1.4 °C 33.8 °F /  1.0 °C 29.8 in /  1008.0 hPa Calm   3.4 mph /  5.5 km/h 98 % 0 in /  0.0 mm
23:18 34.5 °F /  1.4 °C 33.8 °F /  1.0 °C 29.7 in /  1007.0 hPa SSW 3.1 mph /  5.0 km/h 5.4 mph /  8.7 km/h 98 % 0 in /  0.0 mm
23:23 34.5 °F /  1.4 °C 33.8 °F /  1.0 °C 29.7 in /  1007.0 hPa SW 2.7 mph /  4.3 km/h 5.4 mph /  8.7 km/h 98 % 0 in /  0.0 mm
23:28 34.5 °F /  1.4 °C 33.8 °F /  1.0 °C 29.7 in /  1007.0 hPa Calm   4.9 mph /  7.9 km/h 98 % 0 in /  0.0 mm
23:33 34.5 °F /  1.4 °C 33.8 °F /  1.0 °C 29.7 in /  1007.0 hPa SSW 2.7 mph /  4.3 km/h 4 mph /  6.4 km/h 98 % 0 in /  0.0 mm
23:38 34.5 °F /  1.4 °C 33.8 °F /  1.0 °C 29.7 in /  1007.0 hPa Calm   4 mph /  6.4 km/h 98 % 0 in /  0.0 mm
23:43 34.5 °F /  1.4 °C 33.8 °F /  1.0 °C 29.7 in /  1007.0 hPa Calm   5.8 mph /  9.3 km/h 98 % 0 in /  0.0 mm
23:48 34.5 °F /  1.4 °C 33.8 °F /  1.0 °C 29.7 in /  1007.0 hPa SW 1.1 mph /  1.8 km/h 7.6 mph /  12.2 km/h 98 % 0 in /  0.0 mm
23:53 34.5 °F /  1.4 °C 33.8 °F /  1.0 °C 29.7 in /  1007.0 hPa SW 5.6 mph /  9.0 km/h 7.6 mph /  12.2 km/h 98 % 0 in /  0.0 mm
23:58 34.5 °F /  1.4 °C 33.8 °F /  1.0 °C 29.7 in /  1007.0 hPa SSW 3.8 mph /  6.1 km/h 7.2 mph /  11.6 km/h 98 % 0 in /  0.0 mm
Le Gheer Warneton
Courtoisie de Weather Underground - 2.25 mb

Mise a jour : 18/12/2017 04:22:12
Généré par Cumulus 1.9.4 (1099)